sensor_id;sensor_type;location;lat;lon;timestamp;temperature;humidity
2631;DHT22;1325;48.414;9.952;2022-07-29T00:02:17;19.40;99.90
2631;DHT22;1325;48.414;9.952;2022-07-29T00:04:45;18.90;99.90
2631;DHT22;1325;48.414;9.952;2022-07-29T00:07:12;18.60;99.90
2631;DHT22;1325;48.414;9.952;2022-07-29T00:09:39;18.30;99.90
2631;DHT22;1325;48.414;9.952;2022-07-29T00:12:06;18.30;99.90
2631;DHT22;1325;48.414;9.952;2022-07-29T00:14:36;18.00;99.90
2631;DHT22;1325;48.414;9.952;2022-07-29T00:17:03;17.90;99.90
2631;DHT22;1325;48.414;9.952;2022-07-29T00:19:30;18.30;99.90
2631;DHT22;1325;48.414;9.952;2022-07-29T00:21:57;18.30;99.90
2631;DHT22;1325;48.414;9.952;2022-07-29T00:24:24;18.10;99.90
2631;DHT22;1325;48.414;9.952;2022-07-29T00:26:51;17.80;99.90
2631;DHT22;1325;48.414;9.952;2022-07-29T00:29:19;18.10;99.90
2631;DHT22;1325;48.414;9.952;2022-07-29T00:31:47;18.40;99.90
2631;DHT22;1325;48.414;9.952;2022-07-29T00:34:14;18.00;99.90
2631;DHT22;1325;48.414;9.952;2022-07-29T00:36:55;17.80;99.90
2631;DHT22;1325;48.414;9.952;2022-07-29T00:39:23;17.60;99.90
2631;DHT22;1325;48.414;9.952;2022-07-29T00:41:50;17.60;99.90
2631;DHT22;1325;48.414;9.952;2022-07-29T00:44:18;17.60;99.90
2631;DHT22;1325;48.414;9.952;2022-07-29T00:46:46;17.80;99.90
2631;DHT22;1325;48.414;9.952;2022-07-29T00:49:13;18.10;99.90
2631;DHT22;1325;48.414;9.952;2022-07-29T00:51:40;18.00;99.90
2631;DHT22;1325;48.414;9.952;2022-07-29T00:54:08;18.30;99.90
2631;DHT22;1325;48.414;9.952;2022-07-29T00:56:35;18.30;99.90
2631;DHT22;1325;48.414;9.952;2022-07-29T00:59:02;17.90;99.90
2631;DHT22;1325;48.414;9.952;2022-07-29T01:01:29;17.70;99.90
2631;DHT22;1325;48.414;9.952;2022-07-29T01:03:58;18.00;99.90
2631;DHT22;1325;48.414;9.952;2022-07-29T01:06:25;18.00;99.90
2631;DHT22;1325;48.414;9.952;2022-07-29T01:08:53;18.00;99.90
2631;DHT22;1325;48.414;9.952;2022-07-29T01:11:20;17.80;99.90
2631;DHT22;1325;48.414;9.952;2022-07-29T01:13:47;17.80;99.90
2631;DHT22;1325;48.414;9.952;2022-07-29T01:16:24;18.20;99.90
2631;DHT22;1325;48.414;9.952;2022-07-29T01:19:00;18.00;99.90
2631;DHT22;1325;48.414;9.952;2022-07-29T01:21:44;18.10;99.90
2631;DHT22;1325;48.414;9.952;2022-07-29T01:24:32;18.20;99.90
2631;DHT22;1325;48.414;9.952;2022-07-29T01:27:09;18.00;99.90
2631;DHT22;1325;48.414;9.952;2022-07-29T01:29:54;17.60;99.90
2631;DHT22;1325;48.414;9.952;2022-07-29T01:32:27;17.50;99.90
2631;DHT22;1325;48.414;9.952;2022-07-29T01:34:58;18.00;99.90
2631;DHT22;1325;48.414;9.952;2022-07-29T01:37:44;18.30;99.90
2631;DHT22;1325;48.414;9.952;2022-07-29T01:40:19;18.40;99.90
2631;DHT22;1325;48.414;9.952;2022-07-29T01:42:51;18.60;99.90
2631;DHT22;1325;48.414;9.952;2022-07-29T01:45:24;18.50;99.90
2631;DHT22;1325;48.414;9.952;2022-07-29T01:48:00;18.30;99.90
2631;DHT22;1325;48.414;9.952;2022-07-29T01:50:34;17.90;99.90
2631;DHT22;1325;48.414;9.952;2022-07-29T01:53:05;17.90;99.90
2631;DHT22;1325;48.414;9.952;2022-07-29T01:55:38;17.90;99.90
2631;DHT22;1325;48.414;9.952;2022-07-29T01:58:07;17.90;99.90
2631;DHT22;1325;48.414;9.952;2022-07-29T02:00:37;17.70;99.90
2631;DHT22;1325;48.414;9.952;2022-07-29T02:03:09;17.90;99.90
2631;DHT22;1325;48.414;9.952;2022-07-29T02:05:38;17.90;99.90
2631;DHT22;1325;48.414;9.952;2022-07-29T02:08:07;17.90;99.90
2631;DHT22;1325;48.414;9.952;2022-07-29T02:10:36;17.80;99.90
2631;DHT22;1325;48.414;9.952;2022-07-29T02:13:05;17.90;99.90
2631;DHT22;1325;48.414;9.952;2022-07-29T02:15:34;17.80;99.90
2631;DHT22;1325;48.414;9.952;2022-07-29T02:18:08;17.80;99.90
2631;DHT22;1325;48.414;9.952;2022-07-29T02:20:39;17.80;99.90
2631;DHT22;1325;48.414;9.952;2022-07-29T02:23:08;17.90;99.90
2631;DHT22;1325;48.414;9.952;2022-07-29T02:25:37;17.70;99.90
2631;DHT22;1325;48.414;9.952;2022-07-29T02:28:05;17.90;99.90
2631;DHT22;1325;48.414;9.952;2022-07-29T02:30:34;18.10;99.90
2631;DHT22;1325;48.414;9.952;2022-07-29T02:33:09;18.10;99.90
2631;DHT22;1325;48.414;9.952;2022-07-29T02:35:37;18.00;99.90
2631;DHT22;1325;48.414;9.952;2022-07-29T02:38:05;18.00;99.90
2631;DHT22;1325;48.414;9.952;2022-07-29T02:40:52;18.00;99.90
2631;DHT22;1325;48.414;9.952;2022-07-29T02:43:20;18.00;99.90
2631;DHT22;1325;48.414;9.952;2022-07-29T02:45:52;18.00;99.90
2631;DHT22;1325;48.414;9.952;2022-07-29T02:48:25;17.90;99.90
2631;DHT22;1325;48.414;9.952;2022-07-29T02:51:04;17.70;99.90
2631;DHT22;1325;48.414;9.952;2022-07-29T02:53:34;17.80;99.90
2631;DHT22;1325;48.414;9.952;2022-07-29T02:56:07;17.50;99.90
2631;DHT22;1325;48.414;9.952;2022-07-29T02:58:40;17.60;99.90
2631;DHT22;1325;48.414;9.952;2022-07-29T03:01:12;17.50;99.90
2631;DHT22;1325;48.414;9.952;2022-07-29T03:03:44;17.30;99.90
2631;DHT22;1325;48.414;9.952;2022-07-29T03:06:13;17.30;99.90
2631;DHT22;1325;48.414;9.952;2022-07-29T03:08:42;17.20;99.90
2631;DHT22;1325;48.414;9.952;2022-07-29T03:11:11;17.50;99.90
2631;DHT22;1325;48.414;9.952;2022-07-29T03:13:39;17.40;99.90
2631;DHT22;1325;48.414;9.952;2022-07-29T03:16:09;17.20;99.90
2631;DHT22;1325;48.414;9.952;2022-07-29T03:18:36;17.30;99.90
2631;DHT22;1325;48.414;9.952;2022-07-29T03:21:04;17.20;99.90
2631;DHT22;1325;48.414;9.952;2022-07-29T03:25:58;17.20;99.90
2631;DHT22;1325;48.414;9.952;2022-07-29T03:28:25;17.30;99.90
2631;DHT22;1325;48.414;9.952;2022-07-29T03:30:53;17.10;99.90
2631;DHT22;1325;48.414;9.952;2022-07-29T03:33:22;17.20;99.90
2631;DHT22;1325;48.414;9.952;2022-07-29T03:35:49;17.20;99.90
2631;DHT22;1325;48.414;9.952;2022-07-29T03:38:16;17.00;99.90
2631;DHT22;1325;48.414;9.952;2022-07-29T03:40:48;17.00;99.90
2631;DHT22;1325;48.414;9.952;2022-07-29T03:43:18;16.90;99.90
2631;DHT22;1325;48.414;9.952;2022-07-29T03:45:48;16.90;99.90
2631;DHT22;1325;48.414;9.952;2022-07-29T03:48:20;17.10;99.90
2631;DHT22;1325;48.414;9.952;2022-07-29T03:50:50;17.00;99.90
2631;DHT22;1325;48.414;9.952;2022-07-29T03:53:18;17.10;99.90
2631;DHT22;1325;48.414;9.952;2022-07-29T03:55:48;17.20;99.90
2631;DHT22;1325;48.414;9.952;2022-07-29T03:58:18;17.00;99.90
2631;DHT22;1325;48.414;9.952;2022-07-29T04:00:46;17.00;99.90
2631;DHT22;1325;48.414;9.952;2022-07-29T04:03:13;17.10;99.90
2631;DHT22;1325;48.414;9.952;2022-07-29T04:05:42;17.20;99.90
2631;DHT22;1325;48.414;9.952;2022-07-29T04:08:09;17.20;99.90
2631;DHT22;1325;48.414;9.952;2022-07-29T04:10:37;17.20;99.90
2631;DHT22;1325;48.414;9.952;2022-07-29T04:13:04;17.00;99.90
2631;DHT22;1325;48.414;9.952;2022-07-29T04:15:32;17.10;99.90
2631;DHT22;1325;48.414;9.952;2022-07-29T04:17:59;17.10;99.90
2631;DHT22;1325;48.414;9.952;2022-07-29T04:20:26;17.20;99.90
2631;DHT22;1325;48.414;9.952;2022-07-29T04:22:55;17.00;99.90
2631;DHT22;1325;48.414;9.952;2022-07-29T04:25:22;17.00;99.90
2631;DHT22;1325;48.414;9.952;2022-07-29T04:27:49;17.10;99.90
2631;DHT22;1325;48.414;9.952;2022-07-29T04:30:28;17.10;99.90
2631;DHT22;1325;48.414;9.952;2022-07-29T04:32:56;17.30;99.90
2631;DHT22;1325;48.414;9.952;2022-07-29T04:35:23;17.60;99.90
2631;DHT22;1325;48.414;9.952;2022-07-29T04:37:50;17.50;99.90
2631;DHT22;1325;48.414;9.952;2022-07-29T04:40:19;17.60;99.90
2631;DHT22;1325;48.414;9.952;2022-07-29T04:42:47;17.80;99.90
2631;DHT22;1325;48.414;9.952;2022-07-29T04:45:14;17.80;99.90
2631;DHT22;1325;48.414;9.952;2022-07-29T04:47:41;18.00;99.90
2631;DHT22;1325;48.414;9.952;2022-07-29T04:50:09;18.30;99.90
2631;DHT22;1325;48.414;9.952;2022-07-29T04:52:37;18.10;99.90
2631;DHT22;1325;48.414;9.952;2022-07-29T04:55:05;18.10;99.90
2631;DHT22;1325;48.414;9.952;2022-07-29T04:57:34;18.80;99.90
2631;DHT22;1325;48.414;9.952;2022-07-29T05:00:03;19.20;99.90
2631;DHT22;1325;48.414;9.952;2022-07-29T05:02:31;19.50;99.90
2631;DHT22;1325;48.414;9.952;2022-07-29T05:04:58;19.80;99.90
2631;DHT22;1325;48.414;9.952;2022-07-29T05:07:25;19.90;99.90
2631;DHT22;1325;48.414;9.952;2022-07-29T05:09:52;19.40;99.90
2631;DHT22;1325;48.414;9.952;2022-07-29T05:12:22;19.50;99.90
2631;DHT22;1325;48.414;9.952;2022-07-29T05:14:51;19.30;99.90
2631;DHT22;1325;48.414;9.952;2022-07-29T05:17:18;18.80;99.90
2631;DHT22;1325;48.414;9.952;2022-07-29T05:19:46;18.40;99.90
2631;DHT22;1325;48.414;9.952;2022-07-29T05:22:13;18.30;99.90
2631;DHT22;1325;48.414;9.952;2022-07-29T05:24:40;18.70;99.90
2631;DHT22;1325;48.414;9.952;2022-07-29T05:27:08;19.10;99.90
2631;DHT22;1325;48.414;9.952;2022-07-29T05:29:36;19.40;99.90
2631;DHT22;1325;48.414;9.952;2022-07-29T05:32:05;19.30;99.90
2631;DHT22;1325;48.414;9.952;2022-07-29T05:34:32;19.10;99.90
2631;DHT22;1325;48.414;9.952;2022-07-29T05:37:00;19.40;99.90
2631;DHT22;1325;48.414;9.952;2022-07-29T05:39:27;19.70;99.90
2631;DHT22;1325;48.414;9.952;2022-07-29T05:41:55;19.70;99.90
2631;DHT22;1325;48.414;9.952;2022-07-29T05:44:22;20.00;99.90
2631;DHT22;1325;48.414;9.952;2022-07-29T05:46:49;19.40;99.90
2631;DHT22;1325;48.414;9.952;2022-07-29T05:49:18;20.30;99.90
2631;DHT22;1325;48.414;9.952;2022-07-29T05:51:45;20.80;99.90
2631;DHT22;1325;48.414;9.952;2022-07-29T05:54:14;20.60;99.90
2631;DHT22;1325;48.414;9.952;2022-07-29T05:56:41;21.00;99.90
2631;DHT22;1325;48.414;9.952;2022-07-29T05:59:09;21.00;99.90
2631;DHT22;1325;48.414;9.952;2022-07-29T06:01:36;20.90;99.90
2631;DHT22;1325;48.414;9.952;2022-07-29T06:04:05;20.70;99.90
2631;DHT22;1325;48.414;9.952;2022-07-29T06:06:34;20.60;99.90
2631;DHT22;1325;48.414;9.952;2022-07-29T06:09:02;20.40;99.90
2631;DHT22;1325;48.414;9.952;2022-07-29T06:11:29;20.00;99.90
2631;DHT22;1325;48.414;9.952;2022-07-29T06:13:56;19.90;99.90
2631;DHT22;1325;48.414;9.952;2022-07-29T06:16:23;19.70;99.90
2631;DHT22;1325;48.414;9.952;2022-07-29T06:18:50;19.90;99.90
2631;DHT22;1325;48.414;9.952;2022-07-29T06:21:18;19.80;99.90
2631;DHT22;1325;48.414;9.952;2022-07-29T06:23:46;20.20;99.90
2631;DHT22;1325;48.414;9.952;2022-07-29T06:26:13;20.40;99.90
2631;DHT22;1325;48.414;9.952;2022-07-29T06:28:41;20.50;99.90
2631;DHT22;1325;48.414;9.952;2022-07-29T06:31:08;20.40;99.90
2631;DHT22;1325;48.414;9.952;2022-07-29T06:33:35;20.50;99.90
2631;DHT22;1325;48.414;9.952;2022-07-29T06:36:22;20.30;99.90
2631;DHT22;1325;48.414;9.952;2022-07-29T06:38:50;20.40;99.90
2631;DHT22;1325;48.414;9.952;2022-07-29T06:41:18;19.70;99.90
2631;DHT22;1325;48.414;9.952;2022-07-29T06:43:45;19.80;99.90
2631;DHT22;1325;48.414;9.952;2022-07-29T06:46:14;19.70;99.90
2631;DHT22;1325;48.414;9.952;2022-07-29T06:48:43;19.80;99.90
2631;DHT22;1325;48.414;9.952;2022-07-29T06:51:11;20.10;99.90
2631;DHT22;1325;48.414;9.952;2022-07-29T06:53:38;19.90;99.90
2631;DHT22;1325;48.414;9.952;2022-07-29T06:56:07;19.80;99.90
2631;DHT22;1325;48.414;9.952;2022-07-29T06:58:35;19.60;99.90
2631;DHT22;1325;48.414;9.952;2022-07-29T07:01:04;19.40;99.90
2631;DHT22;1325;48.414;9.952;2022-07-29T07:03:32;19.20;99.90
2631;DHT22;1325;48.414;9.952;2022-07-29T07:06:00;19.50;99.90
2631;DHT22;1325;48.414;9.952;2022-07-29T07:08:28;20.20;99.90
2631;DHT22;1325;48.414;9.952;2022-07-29T07:10:55;19.40;99.90
2631;DHT22;1325;48.414;9.952;2022-07-29T07:13:24;19.70;99.90
2631;DHT22;1325;48.414;9.952;2022-07-29T07:15:52;19.40;99.90
2631;DHT22;1325;48.414;9.952;2022-07-29T07:18:19;19.80;99.90
2631;DHT22;1325;48.414;9.952;2022-07-29T07:20:46;19.60;99.90
2631;DHT22;1325;48.414;9.952;2022-07-29T07:23:14;19.40;99.90
2631;DHT22;1325;48.414;9.952;2022-07-29T07:25:41;19.90;99.90
2631;DHT22;1325;48.414;9.952;2022-07-29T07:28:08;19.60;99.90
2631;DHT22;1325;48.414;9.952;2022-07-29T07:30:37;19.90;99.90
2631;DHT22;1325;48.414;9.952;2022-07-29T07:33:04;19.90;99.90
2631;DHT22;1325;48.414;9.952;2022-07-29T07:35:32;19.90;99.90
2631;DHT22;1325;48.414;9.952;2022-07-29T07:37:59;19.80;99.90
2631;DHT22;1325;48.414;9.952;2022-07-29T07:40:27;20.10;99.90
2631;DHT22;1325;48.414;9.952;2022-07-29T07:42:56;19.90;99.90
2631;DHT22;1325;48.414;9.952;2022-07-29T07:45:23;20.30;99.90
2631;DHT22;1325;48.414;9.952;2022-07-29T07:47:52;20.10;99.90
2631;DHT22;1325;48.414;9.952;2022-07-29T07:50:19;19.70;99.90
2631;DHT22;1325;48.414;9.952;2022-07-29T07:52:47;19.70;99.90
2631;DHT22;1325;48.414;9.952;2022-07-29T07:55:16;19.80;99.90
2631;DHT22;1325;48.414;9.952;2022-07-29T07:57:44;20.00;99.90
2631;DHT22;1325;48.414;9.952;2022-07-29T08:00:12;20.40;99.90
2631;DHT22;1325;48.414;9.952;2022-07-29T08:02:40;20.80;99.90
2631;DHT22;1325;48.414;9.952;2022-07-29T08:05:14;20.60;99.90
2631;DHT22;1325;48.414;9.952;2022-07-29T08:07:44;21.10;99.90
2631;DHT22;1325;48.414;9.952;2022-07-29T08:10:12;21.10;99.90
2631;DHT22;1325;48.414;9.952;2022-07-29T08:12:39;21.50;99.90
2631;DHT22;1325;48.414;9.952;2022-07-29T08:15:08;21.60;99.90
2631;DHT22;1325;48.414;9.952;2022-07-29T08:17:35;21.80;99.90
2631;DHT22;1325;48.414;9.952;2022-07-29T08:20:03;22.10;99.90
2631;DHT22;1325;48.414;9.952;2022-07-29T08:22:32;22.70;99.90
2631;DHT22;1325;48.414;9.952;2022-07-29T08:25:00;23.20;99.90
2631;DHT22;1325;48.414;9.952;2022-07-29T08:27:27;23.40;99.90
2631;DHT22;1325;48.414;9.952;2022-07-29T08:29:56;24.30;99.90
2631;DHT22;1325;48.414;9.952;2022-07-29T08:32:23;23.50;99.90
2631;DHT22;1325;48.414;9.952;2022-07-29T08:34:50;23.10;99.90
2631;DHT22;1325;48.414;9.952;2022-07-29T08:37:17;23.60;99.90
2631;DHT22;1325;48.414;9.952;2022-07-29T08:39:46;23.50;99.90
2631;DHT22;1325;48.414;9.952;2022-07-29T08:42:13;24.20;99.90
2631;DHT22;1325;48.414;9.952;2022-07-29T08:44:42;24.50;99.90
2631;DHT22;1325;48.414;9.952;2022-07-29T08:47:10;24.60;99.90
2631;DHT22;1325;48.414;9.952;2022-07-29T08:49:40;24.90;99.90
2631;DHT22;1325;48.414;9.952;2022-07-29T08:52:10;24.70;99.90
2631;DHT22;1325;48.414;9.952;2022-07-29T08:54:39;25.00;99.90
2631;DHT22;1325;48.414;9.952;2022-07-29T08:57:07;25.80;99.90
2631;DHT22;1325;48.414;9.952;2022-07-29T08:59:35;25.50;99.90
2631;DHT22;1325;48.414;9.952;2022-07-29T09:02:04;25.00;99.90
2631;DHT22;1325;48.414;9.952;2022-07-29T09:04:34;25.70;99.90
2631;DHT22;1325;48.414;9.952;2022-07-29T09:07:04;26.20;99.90
2631;DHT22;1325;48.414;9.952;2022-07-29T09:09:33;26.20;99.90
2631;DHT22;1325;48.414;9.952;2022-07-29T09:12:01;27.60;99.90
2631;DHT22;1325;48.414;9.952;2022-07-29T09:14:30;27.30;99.90
2631;DHT22;1325;48.414;9.952;2022-07-29T09:16:57;26.90;99.90
2631;DHT22;1325;48.414;9.952;2022-07-29T09:19:27;26.30;99.90
2631;DHT22;1325;48.414;9.952;2022-07-29T09:21:57;26.30;99.90
2631;DHT22;1325;48.414;9.952;2022-07-29T09:24:36;26.00;99.90
2631;DHT22;1325;48.414;9.952;2022-07-29T09:27:10;26.00;99.90
2631;DHT22;1325;48.414;9.952;2022-07-29T09:29:41;26.40;99.90
2631;DHT22;1325;48.414;9.952;2022-07-29T09:32:09;27.30;99.90
2631;DHT22;1325;48.414;9.952;2022-07-29T09:34:37;27.80;99.90
2631;DHT22;1325;48.414;9.952;2022-07-29T09:37:04;27.70;99.90
2631;DHT22;1325;48.414;9.952;2022-07-29T09:39:33;27.00;99.90
2631;DHT22;1325;48.414;9.952;2022-07-29T09:42:03;27.50;99.90
2631;DHT22;1325;48.414;9.952;2022-07-29T09:44:46;27.80;99.90
2631;DHT22;1325;48.414;9.952;2022-07-29T09:47:16;27.80;99.90
2631;DHT22;1325;48.414;9.952;2022-07-29T09:49:53;26.70;99.90
2631;DHT22;1325;48.414;9.952;2022-07-29T09:52:23;26.60;99.90
2631;DHT22;1325;48.414;9.952;2022-07-29T09:54:51;26.90;99.90
2631;DHT22;1325;48.414;9.952;2022-07-29T09:57:24;26.90;99.90
2631;DHT22;1325;48.414;9.952;2022-07-29T09:59:58;26.40;99.90
2631;DHT22;1325;48.414;9.952;2022-07-29T10:02:30;26.30;99.90
2631;DHT22;1325;48.414;9.952;2022-07-29T10:04:59;27.30;99.90
2631;DHT22;1325;48.414;9.952;2022-07-29T10:07:43;28.10;99.90
2631;DHT22;1325;48.414;9.952;2022-07-29T10:10:19;28.60;99.90
2631;DHT22;1325;48.414;9.952;2022-07-29T10:12:59;28.80;99.90
2631;DHT22;1325;48.414;9.952;2022-07-29T10:15:29;29.00;99.90
2631;DHT22;1325;48.414;9.952;2022-07-29T10:17:59;29.00;99.90
2631;DHT22;1325;48.414;9.952;2022-07-29T10:20:27;28.40;99.90
2631;DHT22;1325;48.414;9.952;2022-07-29T10:22:54;28.00;99.90
2631;DHT22;1325;48.414;9.952;2022-07-29T10:25:22;28.00;99.90
2631;DHT22;1325;48.414;9.952;2022-07-29T10:27:51;27.30;99.90
2631;DHT22;1325;48.414;9.952;2022-07-29T10:30:20;26.80;99.90
2631;DHT22;1325;48.414;9.952;2022-07-29T10:33:25;25.90;99.90
2631;DHT22;1325;48.414;9.952;2022-07-29T10:36:11;25.50;99.90
2631;DHT22;1325;48.414;9.952;2022-07-29T10:38:52;25.80;99.90
2631;DHT22;1325;48.414;9.952;2022-07-29T10:41:47;25.60;99.90
2631;DHT22;1325;48.414;9.952;2022-07-29T10:44:32;25.40;99.90
2631;DHT22;1325;48.414;9.952;2022-07-29T10:47:00;24.90;99.90
2631;DHT22;1325;48.414;9.952;2022-07-29T10:49:29;24.80;99.90
2631;DHT22;1325;48.414;9.952;2022-07-29T10:52:04;24.90;99.90
2631;DHT22;1325;48.414;9.952;2022-07-29T10:54:46;24.50;99.90
2631;DHT22;1325;48.414;9.952;2022-07-29T10:57:24;24.60;99.90
2631;DHT22;1325;48.414;9.952;2022-07-29T11:02:59;24.80;99.90
2631;DHT22;1325;48.414;9.952;2022-07-29T11:05:28;24.80;99.90
2631;DHT22;1325;48.414;9.952;2022-07-29T11:08:23;25.20;99.90
2631;DHT22;1325;48.414;9.952;2022-07-29T11:10:53;25.10;99.90
2631;DHT22;1325;48.414;9.952;2022-07-29T11:13:51;24.70;99.90
2631;DHT22;1325;48.414;9.952;2022-07-29T11:16:21;24.80;99.90
2631;DHT22;1325;48.414;9.952;2022-07-29T11:19:23;24.80;99.90
2631;DHT22;1325;48.414;9.952;2022-07-29T11:21:52;24.90;99.90
2631;DHT22;1325;48.414;9.952;2022-07-29T11:24:21;25.10;99.90
2631;DHT22;1325;48.414;9.952;2022-07-29T11:27:09;25.50;99.90
2631;DHT22;1325;48.414;9.952;2022-07-29T11:29:41;25.50;99.90
2631;DHT22;1325;48.414;9.952;2022-07-29T11:32:16;25.80;99.90
2631;DHT22;1325;48.414;9.952;2022-07-29T11:34:46;25.90;99.90
2631;DHT22;1325;48.414;9.952;2022-07-29T11:37:17;25.90;99.90
2631;DHT22;1325;48.414;9.952;2022-07-29T11:40:11;25.80;99.90
2631;DHT22;1325;48.414;9.952;2022-07-29T11:42:44;25.80;99.90
2631;DHT22;1325;48.414;9.952;2022-07-29T11:45:15;26.20;99.90
2631;DHT22;1325;48.414;9.952;2022-07-29T11:47:49;25.70;99.90
2631;DHT22;1325;48.414;9.952;2022-07-29T11:50:28;25.40;99.90
2631;DHT22;1325;48.414;9.952;2022-07-29T11:53:03;25.40;99.90
2631;DHT22;1325;48.414;9.952;2022-07-29T11:55:38;24.90;99.90
2631;DHT22;1325;48.414;9.952;2022-07-29T11:58:06;24.50;99.90
2631;DHT22;1325;48.414;9.952;2022-07-29T12:00:35;24.50;99.90
2631;DHT22;1325;48.414;9.952;2022-07-29T12:03:05;24.50;99.90
2631;DHT22;1325;48.414;9.952;2022-07-29T12:05:37;24.30;99.90
2631;DHT22;1325;48.414;9.952;2022-07-29T12:08:15;24.60;99.90
2631;DHT22;1325;48.414;9.952;2022-07-29T12:10:45;24.70;99.90
2631;DHT22;1325;48.414;9.952;2022-07-29T12:13:14;24.80;99.90
2631;DHT22;1325;48.414;9.952;2022-07-29T12:15:52;25.40;99.90
2631;DHT22;1325;48.414;9.952;2022-07-29T12:18:20;25.60;99.90
2631;DHT22;1325;48.414;9.952;2022-07-29T12:20:48;25.70;99.90
2631;DHT22;1325;48.414;9.952;2022-07-29T12:23:16;25.80;99.90
2631;DHT22;1325;48.414;9.952;2022-07-29T12:25:44;26.10;99.90
2631;DHT22;1325;48.414;9.952;2022-07-29T12:28:12;26.20;99.90
2631;DHT22;1325;48.414;9.952;2022-07-29T12:30:44;26.40;99.90
2631;DHT22;1325;48.414;9.952;2022-07-29T12:33:19;26.80;99.90
2631;DHT22;1325;48.414;9.952;2022-07-29T12:35:49;27.40;99.90
2631;DHT22;1325;48.414;9.952;2022-07-29T12:38:19;27.00;99.90
2631;DHT22;1325;48.414;9.952;2022-07-29T12:41:01;27.10;99.90
2631;DHT22;1325;48.414;9.952;2022-07-29T12:43:29;27.30;99.90
2631;DHT22;1325;48.414;9.952;2022-07-29T12:45:57;27.50;99.90
2631;DHT22;1325;48.414;9.952;2022-07-29T12:48:34;27.60;99.90
2631;DHT22;1325;48.414;9.952;2022-07-29T12:51:02;27.30;99.90
2631;DHT22;1325;48.414;9.952;2022-07-29T12:53:33;27.50;99.90
2631;DHT22;1325;48.414;9.952;2022-07-29T12:56:00;27.90;99.90
2631;DHT22;1325;48.414;9.952;2022-07-29T12:58:29;27.80;99.90
2631;DHT22;1325;48.414;9.952;2022-07-29T13:01:09;27.30;99.90
2631;DHT22;1325;48.414;9.952;2022-07-29T13:03:49;27.40;99.90
2631;DHT22;1325;48.414;9.952;2022-07-29T13:06:35;27.30;99.90
2631;DHT22;1325;48.414;9.952;2022-07-29T13:09:08;26.80;99.90
2631;DHT22;1325;48.414;9.952;2022-07-29T13:11:39;26.60;99.90
2631;DHT22;1325;48.414;9.952;2022-07-29T13:14:08;26.50;99.90
2631;DHT22;1325;48.414;9.952;2022-07-29T13:16:38;26.30;99.90
2631;DHT22;1325;48.414;9.952;2022-07-29T13:19:34;25.80;99.90
2631;DHT22;1325;48.414;9.952;2022-07-29T13:22:07;25.50;99.90
2631;DHT22;1325;48.414;9.952;2022-07-29T13:24:45;25.00;99.90
2631;DHT22;1325;48.414;9.952;2022-07-29T13:27:14;25.10;99.90
2631;DHT22;1325;48.414;9.952;2022-07-29T13:29:41;24.70;99.90
2631;DHT22;1325;48.414;9.952;2022-07-29T13:32:09;23.90;99.90
2631;DHT22;1325;48.414;9.952;2022-07-29T13:34:36;23.30;99.90
2631;DHT22;1325;48.414;9.952;2022-07-29T13:37:03;22.20;99.90
2631;DHT22;1325;48.414;9.952;2022-07-29T13:39:30;19.10;99.90
2631;DHT22;1325;48.414;9.952;2022-07-29T13:41:59;17.90;99.90
2631;DHT22;1325;48.414;9.952;2022-07-29T13:44:26;17.60;99.90
2631;DHT22;1325;48.414;9.952;2022-07-29T13:46:53;17.70;99.90
2631;DHT22;1325;48.414;9.952;2022-07-29T13:49:22;17.70;99.90
2631;DHT22;1325;48.414;9.952;2022-07-29T13:51:49;18.00;99.90
2631;DHT22;1325;48.414;9.952;2022-07-29T13:54:17;18.20;99.90
2631;DHT22;1325;48.414;9.952;2022-07-29T13:56:44;18.00;99.90
2631;DHT22;1325;48.414;9.952;2022-07-29T13:59:12;17.90;99.90
2631;DHT22;1325;48.414;9.952;2022-07-29T14:01:40;17.60;99.90
2631;DHT22;1325;48.414;9.952;2022-07-29T14:04:08;17.50;99.90
2631;DHT22;1325;48.414;9.952;2022-07-29T14:06:36;17.80;99.90
2631;DHT22;1325;48.414;9.952;2022-07-29T14:09:04;18.20;99.90
2631;DHT22;1325;48.414;9.952;2022-07-29T14:11:34;18.20;99.90
2631;DHT22;1325;48.414;9.952;2022-07-29T14:14:01;18.20;99.90
2631;DHT22;1325;48.414;9.952;2022-07-29T14:16:30;18.20;99.90
2631;DHT22;1325;48.414;9.952;2022-07-29T14:18:57;18.10;99.90
2631;DHT22;1325;48.414;9.952;2022-07-29T14:21:24;18.10;99.90
2631;DHT22;1325;48.414;9.952;2022-07-29T14:23:51;18.30;99.90
2631;DHT22;1325;48.414;9.952;2022-07-29T14:26:20;18.10;99.90
2631;DHT22;1325;48.414;9.952;2022-07-29T14:28:48;17.90;99.90
2631;DHT22;1325;48.414;9.952;2022-07-29T14:31:15;18.10;99.90
2631;DHT22;1325;48.414;9.952;2022-07-29T14:33:43;18.50;99.90
2631;DHT22;1325;48.414;9.952;2022-07-29T14:36:10;18.60;99.90
2631;DHT22;1325;48.414;9.952;2022-07-29T14:38:38;18.10;99.90
2631;DHT22;1325;48.414;9.952;2022-07-29T14:41:26;17.80;99.90
2631;DHT22;1325;48.414;9.952;2022-07-29T14:43:53;18.00;99.90
2631;DHT22;1325;48.414;9.952;2022-07-29T14:46:20;18.30;99.90
2631;DHT22;1325;48.414;9.952;2022-07-29T14:48:49;18.00;99.90
2631;DHT22;1325;48.414;9.952;2022-07-29T14:51:16;17.90;99.90
2631;DHT22;1325;48.414;9.952;2022-07-29T14:53:43;18.20;99.90
2631;DHT22;1325;48.414;9.952;2022-07-29T14:56:11;18.10;99.90
2631;DHT22;1325;48.414;9.952;2022-07-29T14:58:38;18.00;99.90
2631;DHT22;1325;48.414;9.952;2022-07-29T15:01:05;17.90;99.90
2631;DHT22;1325;48.414;9.952;2022-07-29T15:03:32;17.90;99.90
2631;DHT22;1325;48.414;9.952;2022-07-29T15:06:01;17.90;99.90
2631;DHT22;1325;48.414;9.952;2022-07-29T15:08:28;17.80;99.90
2631;DHT22;1325;48.414;9.952;2022-07-29T15:10:56;17.60;99.90
2631;DHT22;1325;48.414;9.952;2022-07-29T15:13:25;17.60;99.90
2631;DHT22;1325;48.414;9.952;2022-07-29T15:15:52;17.50;99.90
2631;DHT22;1325;48.414;9.952;2022-07-29T15:18:19;17.60;99.90
2631;DHT22;1325;48.414;9.952;2022-07-29T15:20:46;17.70;99.90
2631;DHT22;1325;48.414;9.952;2022-07-29T15:23:15;17.70;99.90
2631;DHT22;1325;48.414;9.952;2022-07-29T15:25:42;17.70;99.90
2631;DHT22;1325;48.414;9.952;2022-07-29T15:28:09;17.60;99.90
2631;DHT22;1325;48.414;9.952;2022-07-29T15:30:36;17.70;99.90
2631;DHT22;1325;48.414;9.952;2022-07-29T15:33:06;17.70;99.90
2631;DHT22;1325;48.414;9.952;2022-07-29T15:35:34;17.80;99.90
2631;DHT22;1325;48.414;9.952;2022-07-29T15:38:02;17.70;99.90
2631;DHT22;1325;48.414;9.952;2022-07-29T15:40:30;17.60;99.90
2631;DHT22;1325;48.414;9.952;2022-07-29T15:42:57;17.60;99.90
2631;DHT22;1325;48.414;9.952;2022-07-29T15:45:35;17.70;99.90
2631;DHT22;1325;48.414;9.952;2022-07-29T15:48:04;18.20;99.90
2631;DHT22;1325;48.414;9.952;2022-07-29T15:50:33;18.60;99.90
2631;DHT22;1325;48.414;9.952;2022-07-29T15:53:01;18.50;99.90
2631;DHT22;1325;48.414;9.952;2022-07-29T15:55:30;18.30;99.90
2631;DHT22;1325;48.414;9.952;2022-07-29T15:57:57;18.30;99.90
2631;DHT22;1325;48.414;9.952;2022-07-29T16:00:24;18.10;99.90
2631;DHT22;1325;48.414;9.952;2022-07-29T16:02:51;18.00;99.90
2631;DHT22;1325;48.414;9.952;2022-07-29T16:05:18;18.00;99.90
2631;DHT22;1325;48.414;9.952;2022-07-29T16:07:46;18.60;99.90
2631;DHT22;1325;48.414;9.952;2022-07-29T16:10:13;18.20;99.90
2631;DHT22;1325;48.414;9.952;2022-07-29T16:12:43;18.10;99.90
2631;DHT22;1325;48.414;9.952;2022-07-29T16:15:10;18.30;99.90
2631;DHT22;1325;48.414;9.952;2022-07-29T16:17:37;18.10;99.90
2631;DHT22;1325;48.414;9.952;2022-07-29T16:20:05;18.20;99.90
2631;DHT22;1325;48.414;9.952;2022-07-29T16:22:33;18.20;99.90
2631;DHT22;1325;48.414;9.952;2022-07-29T16:25:00;18.10;99.90
2631;DHT22;1325;48.414;9.952;2022-07-29T16:27:27;18.10;99.90